Perry, LA (70575)

1:35 AM CDT on May 23, 2015 (GMT -0500)
AGH - Abbeville | | Change Station
CLOSE
Current Station
Personal Weather Station
Location: Abbeville, LA
Elevation: 60 ft
Nearby Weather Stations

Elev 60 ft 29.97 °N, 92.11 °W | Updated 40 seconds ago

Mostly Cloudy
Mostly Cloudy
72.4 °F
Feels Like 71 °F
N
4.0
Wind Variable Wind from ENE
Gusts 7.0 mph

Today
High -- | Low -- °F
--% Chance of Precip.
Yesterday
High -- | Low -- °F
Precip. -- in
6:11 AM 7:59 PM
Waxing Crescent, 27% visible
Pressure 30.14 in
Visibility -9999.0 miles
Clouds Mostly Cloudy 3800 ft
Heat Index 71 °F
Dew Point 68 °F
Humidity 87%
Rainfall 0.00 in
Snow Depth Not available.
UV 0 out of 12
Pollen 4.40 out of 12
Air Quality Not available.
Flu Activity Sporadic
METAR KIYA 230615Z AUTO 04003KT BKN038 22/21 A3014 RMK AO2 T02150210 PWINO

More Conditions Fewer Conditions

Pressure 30.14 in
Visibility -9999.0 miles
Clouds Mostly Cloudy 3800 ft
Heat Index 71 °F
Dew Point 68 °F
Humidity 87%
Rainfall 0.00 in
Snow Depth Not available.
UV 0 out of 12
Pollen 4.40 out of 12
Air Quality Not available.
Flu Activity Sporadic
METAR KIYA 230615Z AUTO 04003KT BKN038 22/21 A3014 RMK AO2 T02150210 PWINO

More Conditions Fewer Conditions

10-Day Weather Forecast

Almanac

Astronomy

May. 23, 2015 Rise Set
Actual Time
Civil Twilight
Nautical Twilight
Astronomical Twilight
Moon
Length of Visible Light
Length of Day
Tomorrow will be .
, % of the Moon is Illuminated

Today's Extremes

State Highs State Lows

Community

WunderPhotos

Upload Photos

1,823,394 photos uploaded!

WunderBlogs® & News

Nearby

Air Quality

  Air Quality AQ Index Pollutant
Not available.

Snow Depth

Station Depth Elevation

Earthquake Activity

City Distance Mag. Time & Date
Minimum magnitude displayed is 2.5.

Coastal Water Temperatures

Place Temperature

Stations

Nearby Weather Stations

Station Location Temp. Windchill Dew Point Humidity Wind Precip. Elev Updated Type